Aérodrome :
LOGIN :

S'inscrire | Disclaimer

   EN    FR    IT 

 










Légende :    VFR   VFR Marginal   IFR   IFR Intensif   IFR Très Intensif
Visi : 
Plafond : 
>= 8 km
>= 3000ft
5 à 8 km
1000 à 3000 ft
1500m à 5 km
500 à 1000 ft
800 à 1500m
200 à 500 ft
< 800m
< 200 ft
Symboles :   Orages  Brouillard  Fortes neiges  Fortes précipitations  Vent > 20 kt
SIGMETs :   Divers  Orages  Givrage  Turbulence  Onde Orograph.  Cendres Volcan.






- Altitude de l'aérodrome : 645 ft
- Code IATA : DLE


LFGJ - Dole Tavaux

DERNIER METAR :
  • 270400Z AUTO 20007KT 9999 BKN044 OVC052 06/05 Q1018

METARs EXPIRÉS :
  • 270330Z AUTO 18009KT 9999 BKN049 06/06 Q1018
  • 270300Z AUTO 18007KT CAVOK 05/05 Q1018
  • 270230Z AUTO 19009KT 9999 FEW030 SCT041 BKN230 06/05 Q1019
  • 270200Z AUTO 19010KT 9999 SCT039 BKN058 BKN068 06/06 Q1019
  • 270130Z AUTO 19008KT 9999 FEW028 OVC066 06/06 Q1019
  • 270100Z AUTO 19008KT 9999 FEW027 OVC064 06/06 Q1019

Prévision TAF périmée.



MET'MAP, la Météo Aéronautique d'un coup d'oeil ! - Copyright ORBIFLY Décembre 2007 - Disclaimer

ORBIFLY MET'MAP TEAM :

Programmation & Développement : Alexandra Zaïnal
Sur une idée originale de : Baudouin d'Aumeries
Assistance à la programmation : Marc-Olivier Méhu
Soutien technique & logistique : Manuel Goepfert

Contact : metmap@orbifly.com




SOURCES & CREDITS :

   NOAA